Time;durP1;ratioP1;P1;durP2;ratioP2;P2;SDS_P1;SDS_P2;PMS_P1;PMS_P2;Temp;Humidity;BMP_temperature;BMP_pressure;BME280_temperature;BME280_humidity;BME280_pressure;Samples;Min_cycle;Max_cycle;Signal;HPM_P1;HPM_P2
2021/09/28 00:02:04;;;;;;;14.87;11.88;;;;;;;14.84;90.43;96797.41;1808153;79;20988;-85
2021/09/28 00:04:29;;;;;;;14.83;11.70;;;;;;;14.88;90.74;96798.63;1790387;80;21029;-84
2021/09/28 00:06:56;;;;;;;12.50;11.20;;;;;;;14.93;90.61;96801.44;1795233;80;21055;-84
2021/09/28 00:09:22;;;;;;;12.75;11.43;;;;;;;14.91;90.49;96798.22;1823987;78;21439;-84
2021/09/28 00:11:51;;;;;;;12.68;11.38;;;;;;;14.91;90.63;96801.64;1823925;79;20981;-84
2021/09/28 00:14:18;;;;;;;12.20;9.88;;;;;;;14.95;90.62;96807.28;1823854;79;21329;-84
2021/09/28 00:16:44;;;;;;;11.20;9.48;;;;;;;14.95;90.56;96801.55;1823840;79;21446;-84
2021/09/28 00:19:10;;;;;;;12.50;9.83;;;;;;;14.97;90.53;96802.68;1824164;79;21000;-83
2021/09/28 00:21:36;;;;;;;15.35;10.85;;;;;;;14.95;90.57;96797.62;1824162;79;21348;-84
2021/09/28 00:24:01;;;;;;;10.70;9.53;;;;;;;14.97;90.58;96798.75;1794366;79;20988;-84
2021/09/28 00:26:27;;;;;;;12.63;9.70;;;;;;;14.98;90.63;96792.02;1824354;79;20929;-84
2021/09/28 00:28:53;;;;;;;11.97;10.40;;;;;;;14.96;90.56;96790.06;1824460;79;21381;-84
2021/09/28 00:31:18;;;;;;;12.03;9.20;;;;;;;14.96;90.80;96791.38;1824435;79;21008;-84
2021/09/28 00:33:44;;;;;;;11.60;8.95;;;;;;;14.99;90.90;96793.63;1824230;79;20941;-84
2021/09/28 00:36:10;;;;;;;12.82;10.70;;;;;;;15.01;90.77;96791.61;1824406;79;21311;-84
2021/09/28 00:38:35;;;;;;;11.80;10.15;;;;;;;15.03;90.78;96794.02;1824262;79;20969;-84
2021/09/28 00:41:01;;;;;;;13.93;11.55;;;;;;;15.07;90.85;96787.88;1824221;79;21040;-84
2021/09/28 00:43:53;;;;;;;17.15;12.58;;;;;;;15.08;90.84;96788.98;1824226;79;21443;-84
2021/09/28 00:46:18;;;;;;;18.45;13.93;;;;;;;15.09;90.84;96785.36;1823712;79;20929;-84
2021/09/28 00:48:44;;;;;;;20.57;14.65;;;;;;;15.07;90.92;96793.11;1824335;79;20980;-84
2021/09/28 00:51:11;;;;;;;22.35;16.37;;;;;;;15.06;90.99;96790.20;1823988;79;20925;-84
2021/09/28 00:53:41;;;;;;;27.45;17.52;;;;;;;15.09;91.24;96792.41;1824439;79;21320;-84
2021/09/28 00:56:08;;;;;;;34.35;21.37;;;;;;;15.10;91.54;96784.86;1824336;79;20977;-84
2021/09/28 00:58:35;;;;;;;31.23;20.35;;;;;;;15.17;91.98;96793.54;1824030;78;20926;-84
2021/09/28 01:01:05;;;;;;;22.95;16.75;;;;;;;15.24;91.90;96785.98;1824196;79;20992;-84
2021/09/28 01:03:34;;;;;;;27.90;18.42;;;;;;;15.36;91.90;96793.24;1824158;79;21359;-84
2021/09/28 01:06:00;;;;;;;24.65;18.67;;;;;;;15.40;91.71;96786.08;1824289;79;20992;-84
2021/09/28 01:08:26;;;;;;;25.90;19.52;;;;;;;15.44;91.74;96788.59;1824888;78;21344;-84
2021/09/28 01:10:51;;;;;;;24.23;18.10;;;;;;;15.50;91.94;96796.16;1827570;78;20989;-84
2021/09/28 01:13:17;;;;;;;21.97;16.15;;;;;;;15.57;91.59;96790.41;1827379;78;20965;-83
2021/09/28 01:16:08;;;;;;;20.45;15.45;;;;;;;15.64;91.63;96789.94;1827447;78;21040;-84
2021/09/28 01:18:38;;;;;;;27.65;18.73;;;;;;;15.72;91.37;96799.39;1827284;78;21032;-84
2021/09/28 01:21:06;;;;;;;30.02;20.10;;;;;;;15.74;90.91;96791.63;1827419;78;20981;-84
2021/09/28 01:23:32;;;;;;;24.07;16.57;;;;;;;15.76;91.09;96789.60;1827330;78;20964;-84
2021/09/28 01:25:57;;;;;;;22.02;17.40;;;;;;;15.73;90.82;96786.59;1827409;78;20922;-84
2021/09/28 01:28:23;;;;;;;32.55;21.80;;;;;;;15.72;90.74;96798.08;1817601;78;21957;-84
2021/09/28 01:30:49;;;;;;;36.73;23.90;;;;;;;15.71;90.44;96791.23;1789713;79;20973;-84
2021/09/28 01:33:15;;;;;;;35.80;23.38;;;;;;;15.69;90.35;96787.51;1776054;79;20932;-83
2021/09/28 01:35:41;;;;;;;34.18;23.18;;;;;;;15.65;90.28;96789.44;1786347;80;20962;-84
2021/09/28 01:38:07;;;;;;;37.80;25.65;;;;;;;15.58;90.51;96788.09;1788367;80;21011;-84
2021/09/28 01:40:34;;;;;;;38.78;23.87;;;;;;;15.55;90.85;96786.68;1820025;78;21314;-84
2021/09/28 01:43:09;;;;;;;38.58;24.30;;;;;;;15.57;91.00;96781.23;1826566;78;20965;-83
2021/09/28 01:45:36;;;;;;;45.08;28.10;;;;;;;15.59;90.90;96785.80;1774228;79;20924;-83
2021/09/28 01:48:01;;;;;;;44.38;26.95;;;;;;;15.56;91.04;96783.56;1797779;79;21634;-83
2021/09/28 01:50:27;;;;;;;36.68;24.37;;;;;;;15.59;91.10;96787.11;1792404;80;20973;-84
2021/09/28 01:52:53;;;;;;;50.48;28.57;;;;;;;15.66;90.92;96788.42;1796631;79;20930;-84
2021/09/28 01:55:19;;;;;;;44.70;27.20;;;;;;;15.72;91.19;96787.09;1793216;80;21367;-83
2021/09/28 01:57:45;;;;;;;49.08;30.88;;;;;;;15.73;91.24;96784.77;1785331;80;21014;-84
2021/09/28 02:00:12;;;;;;;49.40;29.25;;;;;;;15.75;91.20;96787.19;1767452;80;20939;-83
2021/09/28 02:02:38;;;;;;;37.10;25.70;;;;;;;15.68;91.21;96787.72;1803319;79;21474;-83
2021/09/28 02:05:05;;;;;;;39.88;24.12;;;;;;;15.65;91.15;96793.37;1799684;79;20994;-83
2021/09/28 02:07:31;;;;;;;37.08;23.85;;;;;;;15.64;91.31;96791.76;1782867;79;21018;-83
2021/09/28 02:09:56;;;;;;;39.25;25.45;;;;;;;15.68;91.10;96797.69;1764979;79;21051;-83
2021/09/28 02:12:22;;;;;;;39.63;26.15;;;;;;;15.72;90.95;96795.45;1762351;79;21034;-83
2021/09/28 02:14:48;;;;;;;41.75;25.72;;;;;;;15.71;90.72;96798.59;1785290;79;20965;-84
2021/09/28 02:17:14;;;;;;;42.23;25.70;;;;;;;15.69;90.82;96795.88;1794199;79;20972;-84
2021/09/28 02:19:40;;;;;;;37.88;24.82;;;;;;;15.67;90.73;96799.20;1793827;79;21009;-83
2021/09/28 02:22:05;;;;;;;40.40;25.10;;;;;;;15.66;90.74;96797.59;1793598;79;21010;-83
2021/09/28 02:24:31;;;;;;;37.83;26.05;;;;;;;15.67;90.37;96801.31;1765590;79;21006;-83
2021/09/28 02:26:57;;;;;;;43.42;26.95;;;;;;;15.65;90.26;96802.53;1762519;79;21311;-83
2021/09/28 02:29:22;;;;;;;41.73;25.80;;;;;;;15.61;90.19;96798.98;1783034;79;20956;-83
2021/09/28 02:31:49;;;;;;;40.85;25.35;;;;;;;15.63;90.48;96794.08;1793347;79;21011;-84
2021/09/28 02:34:15;;;;;;;42.00;27.32;;;;;;;15.58;90.46;96794.63;1794351;79;21276;-84
2021/09/28 02:36:41;;;;;;;37.88;25.00;;;;;;;15.51;90.20;96801.20;1790397;80;20969;-83
2021/09/28 02:39:10;;;;;;;43.28;27.60;;;;;;;15.44;90.04;96799.57;1773495;79;20940;-84
2021/09/28 02:41:36;;;;;;;41.10;27.48;;;;;;;15.41;90.02;96804.71;1796040;79;20957;-84
2021/09/28 02:44:04;;;;;;;43.17;26.35;;;;;;;15.34;89.25;96801.30;1790454;80;21004;-84
2021/09/28 02:46:30;;;;;;;40.80;27.48;;;;;;;15.19;88.60;96799.37;1772790;79;21442;-84
2021/09/28 02:48:55;;;;;;;37.33;25.37;;;;;;;15.10;89.10;96809.22;1795513;79;21010;-84
2021/09/28 02:51:21;;;;;;;41.05;24.63;;;;;;;15.08;89.05;96803.88;1795538;80;20967;-84
2021/09/28 02:53:47;;;;;;;36.42;23.20;;;;;;;15.09;89.02;96808.11;1794532;79;20997;-84
2021/09/28 02:56:13;;;;;;;35.80;23.00;;;;;;;15.07;88.77;96810.93;1764045;80;21366;-84
2021/09/28 02:58:38;;;;;;;37.15;24.25;;;;;;;15.06;88.62;96805.90;1807487;79;20970;-84
2021/09/28 03:01:04;;;;;;;36.95;24.10;;;;;;;15.03;88.84;96804.99;1824226;78;20929;-84
2021/09/28 03:03:30;;;;;;;34.67;23.22;;;;;;;15.03;88.83;96799.77;1824254;79;21344;-84
2021/09/28 03:05:56;;;;;;;41.68;23.92;;;;;;;14.99;88.79;96802.78;1824326;79;21043;-84
2021/09/28 03:08:21;;;;;;;34.70;23.95;;;;;;;14.97;88.79;96797.45;1824144;79;21004;-84
2021/09/28 03:10:47;;;;;;;34.67;23.65;;;;;;;14.96;88.67;96801.84;1824124;79;21412;-84
2021/09/28 03:13:13;;;;;;;37.33;24.27;;;;;;;14.97;88.76;96802.17;1824005;79;20998;-84
2021/09/28 03:15:39;;;;;;;36.50;24.45;;;;;;;14.98;88.89;96806.91;1824079;79;21063;-84
2021/09/28 03:18:05;;;;;;;33.83;22.85;;;;;;;14.99;89.06;96808.52;1824192;79;20969;-84
2021/09/28 03:20:30;;;;;;;34.70;24.43;;;;;;;14.99;89.17;96801.47;1824106;79;20905;-84
2021/09/28 03:22:56;;;;;;;37.93;24.10;;;;;;;15.00;89.27;96802.28;1824025;79;20925;-84
2021/09/28 03:25:22;;;;;;;35.68;23.27;;;;;;;15.03;89.36;96799.77;1824292;79;20957;-84
2021/09/28 03:27:48;;;;;;;34.83;22.32;;;;;;;15.04;89.33;96800.86;1823663;79;21064;-84
2021/09/28 03:30:14;;;;;;;31.77;21.52;;;;;;;15.07;89.31;96799.66;1824361;79;20985;-84
2021/09/28 03:32:40;;;;;;;31.50;23.02;;;;;;;15.11;89.55;96799.55;1824107;78;21296;-83
2021/09/28 03:35:09;;;;;;;30.17;21.45;;;;;;;15.13;89.41;96804.92;1824170;79;20890;-84
2021/09/28 03:37:37;;;;;;;34.08;23.27;;;;;;;15.17;89.33;96800.08;1824122;79;20978;-84
2021/09/28 03:40:05;;;;;;;30.88;21.45;;;;;;;15.15;89.34;96806.02;1824045;79;21017;-84
2021/09/28 03:42:30;;;;;;;42.20;24.50;;;;;;;15.14;89.39;96808.34;1824169;79;20946;-84
2021/09/28 03:44:56;;;;;;;40.78;24.65;;;;;;;15.14;89.23;96810.45;1824242;79;20957;-84
2021/09/28 03:47:22;;;;;;;43.95;27.60;;;;;;;15.14;89.10;96817.50;1824281;78;20984;-84
2021/09/28 03:49:47;;;;;;;48.78;27.75;;;;;;;15.15;89.00;96819.11;1824027;79;20953;-84
2021/09/28 03:52:13;;;;;;;54.45;29.27;;;;;;;15.09;88.69;96821.20;1824258;79;20914;-84
2021/09/28 03:54:39;;;;;;;45.20;26.42;;;;;;;15.01;88.36;96824.31;1824106;79;20956;-84
2021/09/28 03:57:05;;;;;;;42.78;26.50;;;;;;;14.88;88.07;96824.28;1824080;79;20933;-84
2021/09/28 03:59:30;;;;;;;49.70;26.40;;;;;;;14.83;88.25;96833.23;1824138;79;20976;-84
2021/09/28 04:01:56;;;;;;;49.80;27.60;;;;;;;14.80;88.32;96837.53;1824107;79;20960;-84
2021/09/28 04:04:22;;;;;;;51.35;27.10;;;;;;;14.79;88.33;96836.42;1824082;79;20929;-84
2021/09/28 04:06:47;;;;;;;49.42;27.32;;;;;;;14.72;88.26;96832.48;1824188;78;20925;-84
2021/09/28 04:09:13;;;;;;;46.88;26.62;;;;;;;14.72;88.60;96840.34;1824789;78;21356;-84
2021/09/28 04:11:39;;;;;;;46.28;24.45;;;;;;;14.73;88.57;96842.45;1827155;78;21000;-84
2021/09/28 04:14:07;;;;;;;45.58;26.10;;;;;;;14.70;88.36;96844.96;1827431;78;21009;-84
2021/09/28 04:16:33;;;;;;;43.48;27.17;;;;;;;14.68;88.27;96840.42;1827179;78;20960;-84
2021/09/28 04:18:58;;;;;;;39.58;25.75;;;;;;;14.64;88.24;96836.57;1827314;78;20977;-84
2021/09/28 04:21:26;;;;;;;38.60;24.47;;;;;;;14.63;88.24;96839.69;1826997;78;21076;-84
2021/09/28 04:23:52;;;;;;;41.48;23.70;;;;;;;14.64;88.41;96833.95;1827133;78;20914;-84
2021/09/28 04:26:18;;;;;;;27.80;18.92;;;;;;;14.60;88.31;96840.59;1827413;78;21016;-84
2021/09/28 04:28:44;;;;;;;31.35;18.32;;;;;;;14.56;88.13;96841.48;1827342;78;20963;-84
2021/09/28 04:31:12;;;;;;;28.38;18.07;;;;;;;14.53;87.93;96840.58;1827188;78;20890;-84
2021/09/28 04:33:37;;;;;;;29.02;18.42;;;;;;;14.52;88.08;96844.19;1827245;78;20941;-84
2021/09/28 04:36:03;;;;;;;27.82;18.25;;;;;;;14.50;87.87;96840.97;1827239;78;20988;-84
2021/09/28 04:38:29;;;;;;;29.98;18.65;;;;;;;14.48;87.96;96839.52;1827386;78;21053;-84
2021/09/28 04:40:55;;;;;;;32.20;18.90;;;;;;;14.49;88.27;96839.36;1827181;78;21103;-84
2021/09/28 04:43:20;;;;;;;31.65;18.37;;;;;;;14.52;88.12;96840.27;1827387;78;20921;-84
2021/09/28 04:45:47;;;;;;;33.30;19.00;;;;;;;14.55;88.01;96834.64;1827060;78;21352;-84
2021/09/28 04:48:12;;;;;;;25.95;16.93;;;;;;;14.60;88.02;96836.66;1827254;78;20973;-84
2021/09/28 04:50:38;;;;;;;25.60;16.45;;;;;;;14.62;88.13;96834.16;1827399;78;21011;-84
2021/09/28 04:53:04;;;;;;;23.73;16.15;;;;;;;14.64;88.20;96837.87;1827348;78;20909;-84
2021/09/28 04:55:29;;;;;;;23.00;15.28;;;;;;;14.67;88.02;96834.89;1827108;78;20933;-84
2021/09/28 04:57:55;;;;;;;27.98;18.05;;;;;;;14.66;88.02;96838.52;1827275;78;20976;-84
2021/09/28 05:00:21;;;;;;;29.07;17.45;;;;;;;14.67;88.01;96838.31;1827131;78;20956;-84
2021/09/28 05:02:46;;;;;;;32.28;18.23;;;;;;;14.71;88.20;96838.72;1827262;78;21025;-84
2021/09/28 05:05:12;;;;;;;29.92;17.67;;;;;;;14.69;88.04;96842.04;1827197;78;21371;-84
2021/09/28 05:07:38;;;;;;;30.62;17.98;;;;;;;14.62;88.01;96845.92;1827207;78;20973;-84
2021/09/28 05:10:05;;;;;;;31.12;17.40;;;;;;;14.58;88.09;96848.62;1812356;78;20958;-84
2021/09/28 05:12:30;;;;;;;32.65;18.37;;;;;;;14.57;88.20;96849.63;1797846;80;20953;-84
2021/09/28 05:14:57;;;;;;;29.98;17.48;;;;;;;14.61;88.35;96853.97;1797750;80;20957;-84
2021/09/28 05:17:25;;;;;;;31.97;18.98;;;;;;;14.62;88.35;96859.50;1797905;80;20957;-84
2021/09/28 05:19:51;;;;;;;45.67;25.80;;;;;;;14.65;88.68;96862.55;1797786;80;20981;-84
2021/09/28 05:22:17;;;;;;;45.92;25.00;;;;;;;14.68;88.56;96859.55;1797866;80;20921;-84
2021/09/28 05:24:42;;;;;;;40.38;23.47;;;;;;;14.59;88.50;96858.59;1797421;80;21013;-84
2021/09/28 05:27:08;;;;;;;38.60;22.37;;;;;;;14.58;88.56;96863.02;1797854;80;21075;-84
2021/09/28 05:29:34;;;;;;;43.23;23.95;;;;;;;14.57;88.40;96863.21;1797914;80;21372;-84
2021/09/28 05:32:00;;;;;;;39.53;22.58;;;;;;;14.47;88.22;96858.83;1797843;80;20960;-84
2021/09/28 05:34:26;;;;;;;44.88;22.90;;;;;;;14.49;88.74;96863.39;1797923;80;21440;-84
2021/09/28 05:36:52;;;;;;;41.90;23.27;;;;;;;14.49;88.97;96862.89;1797731;80;20960;-84
2021/09/28 05:39:19;;;;;;;36.13;22.20;;;;;;;14.52;88.98;96858.57;1797621;80;21016;-84
2021/09/28 05:41:45;;;;;;;37.30;22.05;;;;;;;14.55;88.88;96858.68;1797820;80;21399;-84
2021/09/28 05:44:10;;;;;;;37.28;23.18;;;;;;;14.56;88.94;96870.75;1797820;80;20969;-84
2021/09/28 05:46:37;;;;;;;34.98;22.42;;;;;;;14.59;89.09;96869.86;1797732;80;20933;-85
2021/09/28 05:49:03;;;;;;;40.60;22.77;;;;;;;14.65;89.38;96873.02;1797712;80;20972;-84
2021/09/28 05:51:29;;;;;;;41.05;22.42;;;;;;;14.70;89.34;96871.92;1797619;80;20984;-84
2021/09/28 05:54:00;;;;;;;36.90;22.45;;;;;;;14.75;89.25;96876.56;1797603;80;21040;-83
2021/09/28 05:56:26;;;;;;;36.88;22.22;;;;;;;14.71;88.82;96880.07;1797937;80;21316;-84
2021/09/28 05:58:52;;;;;;;35.60;20.75;;;;;;;14.69;89.02;96879.46;1797579;80;20922;-84
2021/09/28 06:01:18;;;;;;;33.10;21.20;;;;;;;14.72;89.19;96879.57;1797731;80;20941;-84
2021/09/28 06:03:43;;;;;;;37.00;20.40;;;;;;;14.79;89.30;96880.89;1797929;80;21319;-84
2021/09/28 06:06:09;;;;;;;33.83;20.65;;;;;;;14.80;88.97;96883.31;1797842;80;20949;-84
2021/09/28 06:08:35;;;;;;;36.38;22.10;;;;;;;14.73;89.02;96881.69;1797719;80;20934;-84
2021/09/28 06:11:01;;;;;;;38.05;22.20;;;;;;;14.72;88.99;96890.03;1818352;78;21368;-84
2021/09/28 06:13:27;;;;;;;39.83;21.80;;;;;;;14.73;89.32;96890.84;1824193;79;20917;-84
2021/09/28 06:15:53;;;;;;;35.83;20.27;;;;;;;14.75;89.18;96896.17;1794621;79;20917;-84
2021/09/28 06:18:20;;;;;;;32.55;19.90;;;;;;;14.78;88.93;96898.90;1824061;79;20969;-84
2021/09/28 06:20:46;;;;;;;37.55;19.25;;;;;;;14.80;89.19;96897.70;1824358;78;21020;-84
2021/09/28 06:23:12;;;;;;;27.45;18.25;;;;;;;14.84;89.54;96904.17;1824234;79;21339;-84
2021/09/28 06:25:38;;;;;;;24.85;15.63;;;;;;;14.86;89.32;96904.78;1824103;79;20938;-84
2021/09/28 06:28:05;;;;;;;25.92;15.43;;;;;;;14.78;88.34;96902.82;1823902;79;20984;-84
2021/09/28 06:30:30;;;;;;;26.10;14.58;;;;;;;14.73;88.77;96910.45;1824355;79;21027;-84
2021/09/28 06:32:56;;;;;;;22.52;14.28;;;;;;;14.57;88.11;96905.86;1824226;79;20932;-84
2021/09/28 06:35:23;;;;;;;22.95;15.70;;;;;;;14.48;88.52;96904.42;1823979;79;20933;-84
2021/09/28 06:37:48;;;;;;;25.97;16.60;;;;;;;14.45;88.60;96915.23;1824158;79;21479;-84
2021/09/28 06:40:14;;;;;;;25.08;16.40;;;;;;;14.39;89.10;96912.88;1823975;79;21029;-84
2021/09/28 06:42:40;;;;;;;27.13;16.90;;;;;;;14.45;89.73;96917.85;1824203;79;20985;-84
2021/09/28 06:45:06;;;;;;;20.82;15.08;;;;;;;14.57;89.90;96918.12;1824299;79;21344;-84
2021/09/28 06:47:32;;;;;;;20.35;14.40;;;;;;;14.66;89.84;96922.21;1824263;79;20969;-84
2021/09/28 06:49:57;;;;;;;22.32;15.03;;;;;;;14.71;89.38;96925.84;1823404;79;21375;-84
2021/09/28 06:52:23;;;;;;;23.18;15.80;;;;;;;14.66;88.84;96924.82;1823680;79;20953;-84
2021/09/28 06:54:49;;;;;;;23.15;16.10;;;;;;;14.59;88.63;96922.66;1824262;78;20909;-84
2021/09/28 06:57:14;;;;;;;22.87;15.48;;;;;;;14.61;89.40;96922.77;1824093;79;20996;-84
2021/09/28 06:59:40;;;;;;;18.62;13.80;;;;;;;14.65;89.04;96923.21;1824200;79;20901;-84
2021/09/28 07:02:06;;;;;;;24.30;15.72;;;;;;;14.67;88.54;96927.24;1824183;79;20929;-84
2021/09/28 07:04:32;;;;;;;22.98;15.83;;;;;;;14.58;87.72;96925.77;1824123;79;21331;-84
2021/09/28 07:06:59;;;;;;;21.52;14.78;;;;;;;14.54;88.21;96934.20;1824060;79;20961;-84
2021/09/28 07:09:25;;;;;;;20.88;14.70;;;;;;;14.57;88.69;96928.59;1824053;78;21332;-84
2021/09/28 07:11:51;;;;;;;21.48;15.58;;;;;;;14.62;88.75;96937.45;1824031;79;20953;-84
2021/09/28 07:14:16;;;;;;;21.25;14.45;;;;;;;14.65;88.58;96933.67;1824232;79;20898;-84
2021/09/28 07:16:42;;;;;;;23.92;15.65;;;;;;;14.63;88.23;96935.65;1824028;79;20945;-84
2021/09/28 07:19:10;;;;;;;20.92;15.00;;;;;;;14.63;88.30;96942.19;1823709;79;20938;-84
2021/09/28 07:21:35;;;;;;;24.15;17.40;;;;;;;14.52;86.83;96945.36;1824114;79;20999;-84
2021/09/28 07:24:01;;;;;;;24.25;15.55;;;;;;;14.41;87.68;96952.70;1824054;79;21009;-84
2021/09/28 07:26:27;;;;;;;24.95;17.25;;;;;;;14.34;87.13;96954.98;1824116;79;20940;-84
2021/09/28 07:28:52;;;;;;;24.77;16.62;;;;;;;14.22;87.38;96958.61;1824121;79;20968;-84
2021/09/28 07:31:18;;;;;;;21.20;14.45;;;;;;;14.16;87.80;96952.84;1824356;79;21423;-84
2021/09/28 07:33:44;;;;;;;22.00;15.18;;;;;;;14.17;87.86;96958.38;1823974;79;20963;-84
2021/09/28 07:36:09;;;;;;;22.30;15.32;;;;;;;14.05;87.15;96965.92;1824035;79;20924;-84
2021/09/28 07:38:35;;;;;;;20.95;14.15;;;;;;;14.00;87.59;96966.19;1824059;79;21332;-84
2021/09/28 07:41:01;;;;;;;22.45;14.43;;;;;;;13.92;87.46;96965.00;1823930;79;21031;-84
2021/09/28 07:43:26;;;;;;;21.35;15.53;;;;;;;13.84;87.73;96971.17;1824309;79;20925;-84
2021/09/28 07:45:52;;;;;;;17.15;13.30;;;;;;;13.85;88.13;96974.09;1823798;79;21347;-84
2021/09/28 07:48:18;;;;;;;18.95;14.75;;;;;;;13.80;87.46;96976.44;1794398;79;20972;-84
2021/09/28 07:50:44;;;;;;;17.85;13.70;;;;;;;13.73;87.90;96981.62;1824082;79;21000;-85
2021/09/28 07:53:09;;;;;;;17.35;13.15;;;;;;;13.64;87.15;96982.72;1823997;79;21386;-84
2021/09/28 07:55:35;;;;;;;19.32;14.40;;;;;;;13.59;87.70;96986.39;1824026;79;21003;-84
2021/09/28 07:58:02;;;;;;;18.87;13.65;;;;;;;13.61;88.04;96990.13;1824013;78;20945;-84
2021/09/28 08:00:28;;;;;;;19.92;13.95;;;;;;;13.63;87.88;96984.21;1824006;79;21304;-84
2021/09/28 08:02:54;;;;;;;20.30;14.70;;;;;;;13.61;88.60;96984.90;1824022;79;20969;-84
2021/09/28 08:05:19;;;;;;;20.25;15.15;;;;;;;13.60;88.86;96985.40;1823997;79;21008;-84
2021/09/28 08:07:45;;;;;;;14.18;11.33;;;;;;;13.68;88.76;96985.79;1824139;79;22264;-84
2021/09/28 08:10:15;;;;;;;19.60;14.00;;;;;;;13.69;88.36;96983.48;1817573;78;21052;-84
2021/09/28 08:12:41;;;;;;;17.37;14.03;;;;;;;13.70;88.52;96982.00;1797548;80;21021;-84
2021/09/28 08:15:08;;;;;;;19.40;13.95;;;;;;;13.78;88.90;96975.33;1797564;80;21325;-84
2021/09/28 08:17:34;;;;;;;19.92;14.68;;;;;;;13.81;88.22;96981.48;1797490;80;20949;-84
2021/09/28 08:20:00;;;;;;;21.12;14.23;;;;;;;13.83;88.87;96976.09;1797702;80;21292;-84
2021/09/28 08:22:26;;;;;;;19.35;14.28;;;;;;;13.87;88.64;96981.74;1797621;80;21007;-84
2021/09/28 08:24:55;;;;;;;21.68;15.63;;;;;;;13.89;88.83;96978.44;1797622;80;20934;-84
2021/09/28 08:30:07;;;;;;;22.40;16.40;;;;;;;13.88;88.12;96990.70;1797703;80;21321;-84
2021/09/28 08:32:33;;;;;;;26.97;19.32;;;;;;;13.83;87.93;96989.16;1797616;80;21027;-84
2021/09/28 08:34:58;;;;;;;21.82;16.73;;;;;;;13.86;87.85;96993.19;1797743;80;20981;-84
2021/09/28 08:37:26;;;;;;;25.95;18.70;;;;;;;13.80;87.76;96990.31;1797592;80;20981;-84
2021/09/28 08:39:54;;;;;;;27.87;19.30;;;;;;;13.85;88.22;96995.49;1797748;80;20950;-84
2021/09/28 08:42:20;;;;;;;23.25;16.32;;;;;;;13.92;88.60;96988.02;1796415;80;20996;-84
2021/09/28 08:44:46;;;;;;;20.85;16.62;;;;;;;14.05;89.00;96993.86;1770836;80;20969;-84
2021/09/28 08:47:12;;;;;;;22.20;17.37;;;;;;;14.11;87.33;96993.09;1797669;80;21395;-84
2021/09/28 08:49:38;;;;;;;19.85;15.58;;;;;;;13.93;86.87;96988.82;1797876;80;20945;-84
2021/09/28 08:52:04;;;;;;;21.57;15.83;;;;;;;13.99;88.09;96995.89;1797953;80;20964;-84
2021/09/28 08:54:30;;;;;;;18.40;15.13;;;;;;;14.05;87.64;97003.00;1797841;80;21324;-84
2021/09/28 08:56:56;;;;;;;17.37;14.05;;;;;;;14.05;87.56;97002.50;1797958;80;20934;-84
2021/09/28 08:59:22;;;;;;;19.00;15.53;;;;;;;14.00;86.69;97006.19;1797660;80;20965;-84
2021/09/28 09:01:56;;;;;;;18.05;14.47;;;;;;;13.97;87.17;97009.65;1797777;80;20953;-84
2021/09/28 09:04:23;;;;;;;17.87;14.23;;;;;;;13.96;86.52;97003.61;1797631;80;20961;-84
2021/09/28 09:06:49;;;;;;;21.73;15.45;;;;;;;13.93;86.74;97009.72;1797800;80;20992;-84
2021/09/28 09:09:16;;;;;;;20.17;15.63;;;;;;;13.89;87.10;97005.37;1797822;80;20913;-84
2021/09/28 09:11:45;;;;;;;19.92;16.62;;;;;;;13.91;87.64;97005.99;1797580;78;21502;-84
2021/09/28 09:14:25;;;;;;;20.23;15.08;;;;;;;13.94;87.46;97004.80;1797772;80;21423;-84
2021/09/28 09:16:54;;;;;;;19.67;16.02;;;;;;;13.95;87.10;97010.34;1797866;80;21056;-84
2021/09/28 09:19:28;;;;;;;17.42;14.07;;;;;;;13.84;86.86;97009.05;1797556;80;21376;-83
2021/09/28 09:22:01;;;;;;;18.37;15.43;;;;;;;13.90;87.70;97006.18;1797901;80;20993;-84
2021/09/28 09:24:51;;;;;;;18.48;15.50;;;;;;;14.03;87.22;97001.08;1797865;80;21335;-84
2021/09/28 09:27:31;;;;;;;19.32;15.23;;;;;;;14.16;87.92;97006.42;1797771;80;20984;-84
2021/09/28 09:30:18;;;;;;;18.35;14.83;;;;;;;14.41;88.74;97002.88;1797679;80;20977;-84
2021/09/28 09:32:55;;;;;;;16.77;14.87;;;;;;;14.62;87.92;97006.77;1797573;80;22093;-84
2021/09/28 09:35:31;;;;;;;18.67;16.23;;;;;;;14.65;85.92;97002.48;1797861;80;21009;-84
2021/09/28 09:38:18;;;;;;;18.57;15.50;;;;;;;14.68;86.97;97002.59;1797861;80;20992;-84
2021/09/28 09:40:46;;;;;;;19.37;15.75;;;;;;;14.88;87.81;97000.89;1797764;80;21019;-84
2021/09/28 09:43:16;;;;;;;17.45;15.08;;;;;;;15.06;86.59;96996.95;1797887;80;20975;-84
2021/09/28 09:45:42;;;;;;;16.97;14.23;;;;;;;15.12;86.60;96995.66;1797734;80;21047;-84
2021/09/28 09:48:29;;;;;;;16.77;14.53;;;;;;;15.18;85.48;96993.58;1797449;80;20938;-84
2021/09/28 09:50:59;;;;;;;18.02;15.83;;;;;;;15.24;86.22;96991.48;1797332;80;20972;-84
2021/09/28 09:53:25;;;;;;;19.10;16.32;;;;;;;15.39;85.71;96992.64;1797106;80;21000;-84
2021/09/28 09:55:51;;;;;;;17.42;15.55;;;;;;;15.39;85.54;96993.14;1797817;80;21002;-84
2021/09/28 09:58:16;;;;;;;21.50;16.32;;;;;;;15.46;85.65;96991.37;1797722;80;21013;-84
2021/09/28 10:00:42;;;;;;;18.80;16.85;;;;;;;15.54;85.65;96995.11;1797732;80;21017;-84
2021/09/28 10:03:09;;;;;;;19.17;16.48;;;;;;;15.60;85.13;97000.38;1797971;80;20993;-84
2021/09/28 10:05:35;;;;;;;21.97;18.52;;;;;;;15.66;84.85;96999.30;1797732;80;21008;-84
2021/09/28 10:08:07;;;;;;;19.45;17.23;;;;;;;15.68;83.88;96995.47;1797801;80;21395;-84
2021/09/28 10:10:31;;;;;;;20.43;17.10;;;;;;;15.73;84.67;96993.56;1797513;78;21392;-84
2021/09/28 10:12:57;;;;;;;24.02;17.57;;;;;;;15.82;84.74;96998.93;1797777;80;21040;-84
2021/09/28 10:15:23;;;;;;;24.23;18.67;;;;;;;15.83;84.53;97000.54;1797710;80;20926;-84
2021/09/28 10:17:49;;;;;;;22.42;18.77;;;;;;;15.84;83.63;97004.77;1797644;80;20973;-84
2021/09/28 10:20:31;;;;;;;23.65;18.62;;;;;;;15.86;83.71;97006.69;1797928;80;21268;-85
2021/09/28 10:23:08;;;;;;;21.93;18.15;;;;;;;15.83;83.77;97005.28;1798014;80;20976;-84
2021/09/28 10:25:41;;;;;;;24.85;19.82;;;;;;;15.87;83.35;97009.11;1787130;80;20961;-84
2021/09/28 10:28:17;;;;;;;19.87;17.60;;;;;;;15.92;83.60;97011.13;1797800;80;20973;-84
2021/09/28 10:30:44;;;;;;;22.73;18.57;;;;;;;15.96;83.40;97012.36;1794992;80;20969;-84
2021/09/28 10:33:26;;;;;;;19.60;15.90;;;;;;;15.98;83.29;97021.33;1762741;81;20932;-85
2021/09/28 10:36:08;;;;;;;21.65;18.12;;;;;;;15.88;81.90;97021.70;1757246;81;21371;-84
2021/09/28 10:38:44;;;;;;;19.87;17.55;;;;;;;15.86;82.08;97025.03;1757217;81;21015;-84
2021/09/28 10:41:35;;;;;;;22.30;19.32;;;;;;;15.83;82.61;97022.81;1741674;81;21035;-84
2021/09/28 10:44:36;;;;;;;20.92;18.05;;;;;;;15.88;82.95;97011.22;1763078;81;21385;-84
2021/09/28 10:46:58;;;;;;;19.70;16.27;;;;;;;15.94;83.03;97021.40;1766050;79;20970;-84
2021/09/28 10:49:30;;;;;;;14.68;13.13;;;;;;;16.02;82.42;97020.72;1764940;79;21028;-84
2021/09/28 10:52:21;;;;;;;18.27;16.37;;;;;;;16.10;81.81;97017.89;1741854;79;21023;-84
2021/09/28 10:55:12;;;;;;;16.95;14.23;;;;;;;16.18;82.11;97019.52;1739748;79;21382;-84
2021/09/28 10:58:12;;;;;;;16.77;13.15;;;;;;;16.24;82.20;97021.84;1751970;81;21036;-85
2021/09/28 11:00:48;;;;;;;15.13;13.45;;;;;;;16.37;81.25;97021.84;1743861;81;20953;-84
2021/09/28 11:03:14;;;;;;;13.85;12.28;;;;;;;16.40;81.24;97017.49;1741923;81;21450;-84
2021/09/28 11:05:56;;;;;;;13.83;12.45;;;;;;;16.46;81.75;97017.51;1757729;81;20990;-84
2021/09/28 11:08:23;;;;;;;15.32;13.72;;;;;;;16.50;80.07;97015.28;1751764;81;21000;-84
2021/09/28 11:10:57;;;;;;;16.00;13.08;;;;;;;16.51;79.64;97020.83;1769605;77;20998;-84
2021/09/28 11:13:31;;;;;;;15.43;13.18;;;;;;;16.40;79.75;97017.49;1772637;79;20954;-84
2021/09/28 11:15:58;;;;;;;17.52;14.07;;;;;;;16.38;80.45;97012.96;1805915;79;20948;-84
2021/09/28 11:18:24;;;;;;;15.38;13.00;;;;;;;16.44;80.91;97000.37;1786734;79;21049;-84
2021/09/28 11:20:49;;;;;;;15.10;12.55;;;;;;;16.51;80.81;97005.09;1796357;79;21065;-84
2021/09/28 11:23:15;;;;;;;15.60;13.00;;;;;;;16.55;79.38;97003.66;1788088;79;20983;-84